sensor_id;sensor_type;location;lat;lon;timestamp;pressure;altitude;pressure_sealevel;temperature;humidity
49178;BME280;35016;55.674;37.468;2023-08-06T00:02:24;99349.28;;;23.08;55.92
49178;BME280;35016;55.674;37.468;2023-08-06T00:04:51;99354.34;;;23.06;56.06
49178;BME280;35016;55.674;37.468;2023-08-06T00:07:19;99360.56;;;23.03;56.10
49178;BME280;35016;55.674;37.468;2023-08-06T00:09:46;99360.91;;;23.02;56.08
49178;BME280;35016;55.674;37.468;2023-08-06T00:12:13;99360.47;;;23.00;56.19
49178;BME280;35016;55.674;37.468;2023-08-06T00:14:40;99362.75;;;22.98;56.13
49178;BME280;35016;55.674;37.468;2023-08-06T00:17:08;99361.50;;;22.95;56.34
49178;BME280;35016;55.674;37.468;2023-08-06T00:19:35;99357.81;;;22.91;56.35
49178;BME280;35016;55.674;37.468;2023-08-06T00:22:02;99366.56;;;22.93;56.21
49178;BME280;35016;55.674;37.468;2023-08-06T00:24:29;99360.13;;;22.89;56.33
49178;BME280;35016;55.674;37.468;2023-08-06T00:26:56;99360.56;;;22.91;56.37
49178;BME280;35016;55.674;37.468;2023-08-06T00:29:24;99363.69;;;22.90;56.44
49178;BME280;35016;55.674;37.468;2023-08-06T00:31:52;99360.13;;;22.89;56.44
49178;BME280;35016;55.674;37.468;2023-08-06T00:34:19;99355.63;;;22.84;56.42
49178;BME280;35016;55.674;37.468;2023-08-06T00:36:46;99364.38;;;22.86;56.38
49178;BME280;35016;55.674;37.468;2023-08-06T00:39:14;99359.19;;;22.85;56.54
49178;BME280;35016;55.674;37.468;2023-08-06T00:41:41;99378.56;;;22.85;56.54
49178;BME280;35016;55.674;37.468;2023-08-06T00:44:08;99367.81;;;22.83;56.59
49178;BME280;35016;55.674;37.468;2023-08-06T00:46:35;99365.03;;;22.83;56.66
49178;BME280;35016;55.674;37.468;2023-08-06T00:49:03;99367.00;;;22.83;56.73
49178;BME280;35016;55.674;37.468;2023-08-06T00:51:31;99352.00;;;22.72;56.82
49178;BME280;35016;55.674;37.468;2023-08-06T00:53:59;99367.19;;;22.78;57.11
49178;BME280;35016;55.674;37.468;2023-08-06T00:56:26;99370.78;;;22.78;56.97
49178;BME280;35016;55.674;37.468;2023-08-06T00:58:53;99364.78;;;22.76;57.05
49178;BME280;35016;55.674;37.468;2023-08-06T01:01:21;99363.50;;;22.74;56.95
49178;BME280;35016;55.674;37.468;2023-08-06T01:03:48;99369.84;;;22.74;57.06
49178;BME280;35016;55.674;37.468;2023-08-06T01:06:18;99369.38;;;22.72;57.33
49178;BME280;35016;55.674;37.468;2023-08-06T01:08:48;99371.34;;;22.72;57.18
49178;BME280;35016;55.674;37.468;2023-08-06T01:14:02;99370.06;;;22.69;57.46
49178;BME280;35016;55.674;37.468;2023-08-06T01:16:33;99369.25;;;22.69;57.02
49178;BME280;35016;55.674;37.468;2023-08-06T01:19:00;99374.78;;;22.69;57.18
49178;BME280;35016;55.674;37.468;2023-08-06T01:21:27;99364.09;;;22.67;57.40
49178;BME280;35016;55.674;37.468;2023-08-06T01:23:54;99371.91;;;22.65;57.47
49178;BME280;35016;55.674;37.468;2023-08-06T01:29:26;99372.25;;;22.64;57.82
49178;BME280;35016;55.674;37.468;2023-08-06T01:31:56;99378.47;;;22.61;57.64
49178;BME280;35016;55.674;37.468;2023-08-06T01:34:25;99381.59;;;22.59;57.57
49178;BME280;35016;55.674;37.468;2023-08-06T01:36:54;99374.78;;;22.56;57.84
49178;BME280;35016;55.674;37.468;2023-08-06T01:39:21;99381.13;;;22.57;57.84
49178;BME280;35016;55.674;37.468;2023-08-06T01:41:49;99387.00;;;22.55;58.07
49178;BME280;35016;55.674;37.468;2023-08-06T01:44:16;99382.94;;;22.53;58.12
49178;BME280;35016;55.674;37.468;2023-08-06T01:46:44;99392.03;;;22.53;58.19
49178;BME280;35016;55.674;37.468;2023-08-06T01:49:11;99387.53;;;22.49;58.43
49178;BME280;35016;55.674;37.468;2023-08-06T01:51:38;99390.75;;;22.51;58.46
49178;BME280;35016;55.674;37.468;2023-08-06T01:54:05;99396.28;;;22.51;58.47
49178;BME280;35016;55.674;37.468;2023-08-06T01:56:32;99396.28;;;22.51;58.58
49178;BME280;35016;55.674;37.468;2023-08-06T01:58:59;99391.56;;;22.51;58.51
49178;BME280;35016;55.674;37.468;2023-08-06T02:01:30;99401.47;;;22.52;58.53
49178;BME280;35016;55.674;37.468;2023-08-06T02:03:57;99403.06;;;22.53;58.72
49178;BME280;35016;55.674;37.468;2023-08-06T02:06:24;99403.06;;;22.53;58.74
49178;BME280;35016;55.674;37.468;2023-08-06T02:08:51;99402.28;;;22.53;58.63
49178;BME280;35016;55.674;37.468;2023-08-06T02:11:19;99404.38;;;22.56;58.72
49178;BME280;35016;55.674;37.468;2023-08-06T02:13:46;99401.28;;;22.58;58.63
49178;BME280;35016;55.674;37.468;2023-08-06T02:16:17;99399.78;;;22.60;58.83
49178;BME280;35016;55.674;37.468;2023-08-06T02:18:45;99401.84;;;22.63;58.71
49178;BME280;35016;55.674;37.468;2023-08-06T02:21:26;99396.44;;;22.67;58.70
49178;BME280;35016;55.674;37.468;2023-08-06T02:23:53;99408.78;;;22.69;58.85
49178;BME280;35016;55.674;37.468;2023-08-06T02:26:20;99416.72;;;22.71;58.58
49178;BME280;35016;55.674;37.468;2023-08-06T02:28:47;99414.09;;;22.74;58.60
49178;BME280;35016;55.674;37.468;2023-08-06T02:31:14;99413.41;;;22.77;58.64
49178;BME280;35016;55.674;37.468;2023-08-06T02:33:41;99411.44;;;22.78;58.56
49178;BME280;35016;55.674;37.468;2023-08-06T02:36:10;99407.00;;;22.85;58.54
49178;BME280;35016;55.674;37.468;2023-08-06T02:38:37;99404.38;;;22.89;58.53
49178;BME280;35016;55.674;37.468;2023-08-06T02:41:04;99411.97;;;22.92;58.38
49178;BME280;35016;55.674;37.468;2023-08-06T02:43:31;99418.88;;;22.98;58.32
49178;BME280;35016;55.674;37.468;2023-08-06T02:45:59;99419.34;;;23.00;58.22
49178;BME280;35016;55.674;37.468;2023-08-06T02:48:27;99405.97;;;23.02;58.21
49178;BME280;35016;55.674;37.468;2023-08-06T02:50:58;99417.28;;;23.09;58.28
49178;BME280;35016;55.674;37.468;2023-08-06T02:53:30;99414.63;;;23.13;58.11
49178;BME280;35016;55.674;37.468;2023-08-06T02:56:02;99404.03;;;23.15;58.08
49178;BME280;35016;55.674;37.468;2023-08-06T02:58:49;99412.47;;;23.18;58.12
49178;BME280;35016;55.674;37.468;2023-08-06T03:01:43;99401.97;;;23.24;58.07
49178;BME280;35016;55.674;37.468;2023-08-06T03:04:17;99398.03;;;23.25;58.21
49178;BME280;35016;55.674;37.468;2023-08-06T03:06:47;99391.00;;;23.28;58.24
49178;BME280;35016;55.674;37.468;2023-08-06T03:09:16;99404.59;;;23.33;58.11
49178;BME280;35016;55.674;37.468;2023-08-06T03:11:43;99403.09;;;23.35;58.16
49178;BME280;35016;55.674;37.468;2023-08-06T03:14:13;99399.28;;;23.40;58.44
49178;BME280;35016;55.674;37.468;2023-08-06T03:16:42;99404.63;;;23.45;58.44
49178;BME280;35016;55.674;37.468;2023-08-06T03:19:12;99403.91;;;23.48;58.24
49178;BME280;35016;55.674;37.468;2023-08-06T03:21:39;99400.56;;;23.55;58.19
49178;BME280;35016;55.674;37.468;2023-08-06T03:24:07;99399.53;;;23.59;58.37
49178;BME280;35016;55.674;37.468;2023-08-06T03:26:35;99403.69;;;23.65;58.51
49178;BME280;35016;55.674;37.468;2023-08-06T03:29:03;99398.59;;;23.67;58.44
49178;BME280;35016;55.674;37.468;2023-08-06T03:31:33;99408.75;;;23.75;58.36
49178;BME280;35016;55.674;37.468;2023-08-06T03:34:02;99401.81;;;23.82;58.22
49178;BME280;35016;55.674;37.468;2023-08-06T03:36:30;99407.09;;;23.87;58.02
49178;BME280;35016;55.674;37.468;2023-08-06T03:38:57;99406.50;;;23.93;57.84
49178;BME280;35016;55.674;37.468;2023-08-06T03:41:25;99413.41;;;23.99;57.92
49178;BME280;35016;55.674;37.468;2023-08-06T03:43:53;99411.22;;;24.05;57.83
49178;BME280;35016;55.674;37.468;2023-08-06T03:46:24;99409.44;;;24.13;57.81
49178;BME280;35016;55.674;37.468;2023-08-06T03:48:52;99408.84;;;24.19;57.61
49178;BME280;35016;55.674;37.468;2023-08-06T03:51:19;99408.22;;;24.26;57.62
49178;BME280;35016;55.674;37.468;2023-08-06T03:53:48;99400.97;;;24.33;57.25
49178;BME280;35016;55.674;37.468;2023-08-06T03:56:15;99403.94;;;24.40;57.19
49178;BME280;35016;55.674;37.468;2023-08-06T03:58:42;99402.16;;;24.48;56.94
49178;BME280;35016;55.674;37.468;2023-08-06T04:01:09;99403.50;;;24.54;56.89
49178;BME280;35016;55.674;37.468;2023-08-06T04:03:44;99400.59;;;24.63;56.72
49178;BME280;35016;55.674;37.468;2023-08-06T04:06:12;99402.38;;;24.71;56.65
49178;BME280;35016;55.674;37.468;2023-08-06T04:08:39;99402.94;;;24.77;56.26
49178;BME280;35016;55.674;37.468;2023-08-06T04:11:07;99403.91;;;24.84;56.08
49178;BME280;35016;55.674;37.468;2023-08-06T04:13:34;99408.84;;;24.91;55.89
49178;BME280;35016;55.674;37.468;2023-08-06T04:16:04;99397.94;;;24.98;55.99
49178;BME280;35016;55.674;37.468;2023-08-06T04:18:32;99401.72;;;25.06;55.87
49178;BME280;35016;55.674;37.468;2023-08-06T04:21:01;99394.38;;;25.13;55.61
49178;BME280;35016;55.674;37.468;2023-08-06T04:23:28;99393.31;;;25.18;55.53
49178;BME280;35016;55.674;37.468;2023-08-06T04:25:59;99402.97;;;25.24;55.18
49178;BME280;35016;55.674;37.468;2023-08-06T04:28:31;99401.53;;;25.30;54.80
49178;BME280;35016;55.674;37.468;2023-08-06T04:30:59;99400.44;;;25.35;54.87
49178;BME280;35016;55.674;37.468;2023-08-06T04:33:28;99398.19;;;25.40;54.56
49178;BME280;35016;55.674;37.468;2023-08-06T04:35:57;99393.53;;;25.44;54.38
49178;BME280;35016;55.674;37.468;2023-08-06T04:38:26;99389.69;;;25.49;54.35
49178;BME280;35016;55.674;37.468;2023-08-06T04:40:54;99402.03;;;25.51;54.17
49178;BME280;35016;55.674;37.468;2023-08-06T04:43:23;99404.25;;;25.61;53.91
49178;BME280;35016;55.674;37.468;2023-08-06T04:45:54;99405.94;;;25.66;53.56
49178;BME280;35016;55.674;37.468;2023-08-06T04:48:22;99399.06;;;25.76;53.37
49178;BME280;35016;55.674;37.468;2023-08-06T04:50:50;99400.00;;;25.83;53.70
49178;BME280;35016;55.674;37.468;2023-08-06T04:53:17;99402.94;;;25.90;53.60
49178;BME280;35016;55.674;37.468;2023-08-06T04:55:44;99409.00;;;25.96;53.05
49178;BME280;35016;55.674;37.468;2023-08-06T04:58:12;99408.00;;;26.04;53.04
49178;BME280;35016;55.674;37.468;2023-08-06T05:00:39;99406.09;;;26.08;52.78
49178;BME280;35016;55.674;37.468;2023-08-06T05:03:06;99400.69;;;26.15;52.87
49178;BME280;35016;55.674;37.468;2023-08-06T05:05:34;99402.38;;;26.20;52.66
49178;BME280;35016;55.674;37.468;2023-08-06T05:08:01;99407.25;;;26.27;52.79
49178;BME280;35016;55.674;37.468;2023-08-06T05:10:28;99400.63;;;26.31;52.46
49178;BME280;35016;55.674;37.468;2023-08-06T05:12:55;99383.31;;;26.38;52.58
49178;BME280;35016;55.674;37.468;2023-08-06T05:15:23;99395.72;;;26.44;52.65
49178;BME280;35016;55.674;37.468;2023-08-06T05:17:52;99396.28;;;26.53;52.47
49178;BME280;35016;55.674;37.468;2023-08-06T05:20:20;99388.09;;;26.60;52.02
49178;BME280;35016;55.674;37.468;2023-08-06T05:22:47;99392.56;;;26.65;51.92
49178;BME280;35016;55.674;37.468;2023-08-06T05:25:14;99383.09;;;26.69;51.80
49178;BME280;35016;55.674;37.468;2023-08-06T05:27:41;99390.75;;;26.76;51.54
49178;BME280;35016;55.674;37.468;2023-08-06T05:30:09;99384.06;;;26.80;51.43
49178;BME280;35016;55.674;37.468;2023-08-06T05:32:37;99386.91;;;26.84;51.32
49178;BME280;35016;55.674;37.468;2023-08-06T05:35:04;99386.31;;;26.94;50.95
49178;BME280;35016;55.674;37.468;2023-08-06T05:37:45;99386.47;;;27.01;51.18
49178;BME280;35016;55.674;37.468;2023-08-06T05:40:15;99383.41;;;27.10;50.82
49178;BME280;35016;55.674;37.468;2023-08-06T05:42:42;99374.81;;;27.19;50.53
49178;BME280;35016;55.674;37.468;2023-08-06T05:45:10;99379.75;;;27.29;50.60
49178;BME280;35016;55.674;37.468;2023-08-06T05:47:37;99373.09;;;27.37;50.42
49178;BME280;35016;55.674;37.468;2023-08-06T05:50:04;99379.19;;;27.46;50.55
49178;BME280;35016;55.674;37.468;2023-08-06T05:52:32;99377.72;;;27.52;50.47
49178;BME280;35016;55.674;37.468;2023-08-06T05:54:59;99387.44;;;27.62;50.38
49178;BME280;35016;55.674;37.468;2023-08-06T05:57:26;99375.19;;;27.70;50.09
49178;BME280;35016;55.674;37.468;2023-08-06T05:59:53;99378.91;;;27.77;50.12
49178;BME280;35016;55.674;37.468;2023-08-06T06:02:20;99377.41;;;27.84;49.95
49178;BME280;35016;55.674;37.468;2023-08-06T06:04:47;99366.28;;;27.87;49.81
49178;BME280;35016;55.674;37.468;2023-08-06T06:07:14;99377.94;;;27.96;49.35
49178;BME280;35016;55.674;37.468;2023-08-06T06:09:41;99372.78;;;27.98;49.47
49178;BME280;35016;55.674;37.468;2023-08-06T06:12:08;99376.50;;;28.06;49.36
49178;BME280;35016;55.674;37.468;2023-08-06T06:14:35;99381.34;;;28.13;49.03
49178;BME280;35016;55.674;37.468;2023-08-06T06:17:02;99375.84;;;28.20;48.89
49178;BME280;35016;55.674;37.468;2023-08-06T06:19:29;99373.91;;;28.24;48.74
49178;BME280;35016;55.674;37.468;2023-08-06T06:21:56;99365.97;;;28.26;48.65
49178;BME280;35016;55.674;37.468;2023-08-06T06:24:24;99368.41;;;28.31;48.66
49178;BME280;35016;55.674;37.468;2023-08-06T06:26:51;99374.41;;;28.33;48.54
49178;BME280;35016;55.674;37.468;2023-08-06T06:29:18;99366.50;;;28.35;48.15
49178;BME280;35016;55.674;37.468;2023-08-06T06:31:45;99368.16;;;28.40;48.03
49178;BME280;35016;55.674;37.468;2023-08-06T06:34:13;99371.34;;;28.42;47.79
49178;BME280;35016;55.674;37.468;2023-08-06T06:36:49;99359.78;;;28.40;47.68
49178;BME280;35016;55.674;37.468;2023-08-06T06:39:17;99374.22;;;28.49;47.41
49178;BME280;35016;55.674;37.468;2023-08-06T06:41:44;99372.22;;;28.49;47.19
49178;BME280;35016;55.674;37.468;2023-08-06T06:44:22;99366.28;;;28.54;47.12
49178;BME280;35016;55.674;37.468;2023-08-06T06:46:49;99356.31;;;28.53;46.97
49178;BME280;35016;55.674;37.468;2023-08-06T06:49:16;99354.34;;;28.57;46.99
49178;BME280;35016;55.674;37.468;2023-08-06T06:51:43;99361.53;;;28.58;46.74
49178;BME280;35016;55.674;37.468;2023-08-06T06:54:10;99361.97;;;28.60;46.58
49178;BME280;35016;55.674;37.468;2023-08-06T06:56:38;99356.38;;;28.60;46.57
49178;BME280;35016;55.674;37.468;2023-08-06T06:59:05;99353.66;;;28.64;46.20
49178;BME280;35016;55.674;37.468;2023-08-06T07:01:34;99340.53;;;28.68;46.33
49178;BME280;35016;55.674;37.468;2023-08-06T07:04:01;99351.75;;;28.75;46.30
49178;BME280;35016;55.674;37.468;2023-08-06T07:06:32;99356.16;;;28.76;46.21
49178;BME280;35016;55.674;37.468;2023-08-06T07:08:59;99350.19;;;28.81;46.14
49178;BME280;35016;55.674;37.468;2023-08-06T07:11:26;99355.47;;;28.90;46.18
49178;BME280;35016;55.674;37.468;2023-08-06T07:13:57;99357.94;;;28.95;46.19
49178;BME280;35016;55.674;37.468;2023-08-06T07:16:27;99354.81;;;29.04;45.90
49178;BME280;35016;55.674;37.468;2023-08-06T07:18:54;99358.44;;;29.08;46.05
49178;BME280;35016;55.674;37.468;2023-08-06T07:21:21;99353.25;;;29.10;45.79
49178;BME280;35016;55.674;37.468;2023-08-06T07:23:48;99356.50;;;29.19;46.04
49178;BME280;35016;55.674;37.468;2023-08-06T07:26:17;99348.19;;;29.22;45.79
49178;BME280;35016;55.674;37.468;2023-08-06T07:28:44;99353.78;;;29.26;45.77
49178;BME280;35016;55.674;37.468;2023-08-06T07:31:14;99340.25;;;29.28;45.63
49178;BME280;35016;55.674;37.468;2023-08-06T07:33:41;99339.88;;;29.33;45.79
49178;BME280;35016;55.674;37.468;2023-08-06T07:36:10;99336.31;;;29.40;45.67
49178;BME280;35016;55.674;37.468;2023-08-06T07:38:38;99333.97;;;29.45;45.87
49178;BME280;35016;55.674;37.468;2023-08-06T07:41:05;99342.81;;;29.51;45.96
49178;BME280;35016;55.674;37.468;2023-08-06T07:43:32;99343.63;;;29.51;45.91
49178;BME280;35016;55.674;37.468;2023-08-06T07:46:00;99342.41;;;29.52;45.92
49178;BME280;35016;55.674;37.468;2023-08-06T07:48:28;99341.66;;;29.59;45.77
49178;BME280;35016;55.674;37.468;2023-08-06T07:50:55;99344.06;;;29.60;45.69
49178;BME280;35016;55.674;37.468;2023-08-06T07:53:23;99344.88;;;29.65;45.54
49178;BME280;35016;55.674;37.468;2023-08-06T07:55:51;99335.69;;;29.64;45.01
49178;BME280;35016;55.674;37.468;2023-08-06T07:58:20;99348.06;;;29.67;44.88
49178;BME280;35016;55.674;37.468;2023-08-06T08:00:47;99343.31;;;29.71;44.77
49178;BME280;35016;55.674;37.468;2023-08-06T08:03:15;99336.94;;;29.74;44.80
49178;BME280;35016;55.674;37.468;2023-08-06T08:05:43;99340.97;;;29.80;44.81
49178;BME280;35016;55.674;37.468;2023-08-06T08:08:16;99329.00;;;29.83;44.33
49178;BME280;35016;55.674;37.468;2023-08-06T08:11:56;99323.41;;;29.79;44.40
49178;BME280;35016;55.674;37.468;2023-08-06T08:14:27;99336.59;;;29.86;44.28
49178;BME280;35016;55.674;37.468;2023-08-06T08:16:53;99330.63;;;29.87;44.24
49178;BME280;35016;55.674;37.468;2023-08-06T08:19:21;99327.03;;;29.90;44.38
49178;BME280;35016;55.674;37.468;2023-08-06T08:21:48;99329.84;;;29.94;44.00
49178;BME280;35016;55.674;37.468;2023-08-06T08:24:15;99325.84;;;29.99;43.79
49178;BME280;35016;55.674;37.468;2023-08-06T08:26:42;99321.47;;;30.01;43.61
49178;BME280;35016;55.674;37.468;2023-08-06T08:29:09;99320.75;;;30.08;43.86
49178;BME280;35016;55.674;37.468;2023-08-06T08:31:36;99331.53;;;30.13;43.83
49178;BME280;35016;55.674;37.468;2023-08-06T08:34:06;99323.56;;;30.15;43.99
49178;BME280;35016;55.674;37.468;2023-08-06T08:36:33;99317.16;;;30.18;43.84
49178;BME280;35016;55.674;37.468;2023-08-06T08:39:00;99323.16;;;30.24;43.69
49178;BME280;35016;55.674;37.468;2023-08-06T08:41:31;99309.59;;;30.29;43.27
49178;BME280;35016;55.674;37.468;2023-08-06T08:43:59;99313.19;;;30.30;43.41
49178;BME280;35016;55.674;37.468;2023-08-06T08:46:30;99320.81;;;30.40;43.25
49178;BME280;35016;55.674;37.468;2023-08-06T08:49:01;99313.63;;;30.42;43.18
49178;BME280;35016;55.674;37.468;2023-08-06T08:51:29;99326.41;;;30.47;43.36
49178;BME280;35016;55.674;37.468;2023-08-06T08:53:56;99312.44;;;30.50;43.33
49178;BME280;35016;55.674;37.468;2023-08-06T08:56:24;99310.81;;;30.53;43.23
49178;BME280;35016;55.674;37.468;2023-08-06T08:58:51;99306.44;;;30.56;43.29
49178;BME280;35016;55.674;37.468;2023-08-06T09:01:21;99308.84;;;30.64;43.58
49178;BME280;35016;55.674;37.468;2023-08-06T09:03:49;99311.28;;;30.69;43.58
49178;BME280;35016;55.674;37.468;2023-08-06T09:06:18;99310.88;;;30.78;43.52
49178;BME280;35016;55.674;37.468;2023-08-06T09:08:51;99309.66;;;30.90;43.58
49178;BME280;35016;55.674;37.468;2023-08-06T09:11:21;99298.88;;;30.95;42.92
49178;BME280;35016;55.674;37.468;2023-08-06T09:13:48;99301.28;;;31.00;42.79
49178;BME280;35016;55.674;37.468;2023-08-06T09:16:15;99299.66;;;31.03;43.16
49178;BME280;35016;55.674;37.468;2023-08-06T09:18:42;99292.84;;;31.07;43.29
49178;BME280;35016;55.674;37.468;2023-08-06T09:21:14;99308.47;;;31.08;42.89
49178;BME280;35016;55.674;37.468;2023-08-06T09:23:43;99293.66;;;31.19;42.82
49178;BME280;35016;55.674;37.468;2023-08-06T09:26:13;99292.47;;;31.16;42.54
49178;BME280;35016;55.674;37.468;2023-08-06T09:28:42;99293.66;;;31.22;42.75
49178;BME280;35016;55.674;37.468;2023-08-06T09:31:10;99288.84;;;31.08;42.68
49178;BME280;35016;55.674;37.468;2023-08-06T09:33:37;99287.25;;;31.04;43.29
49178;BME280;35016;55.674;37.468;2023-08-06T09:36:11;99287.63;;;31.13;42.63
49178;BME280;35016;55.674;37.468;2023-08-06T09:38:39;99292.03;;;31.21;42.57
49178;BME280;35016;55.674;37.468;2023-08-06T09:41:07;99279.25;;;31.27;42.83
49178;BME280;35016;55.674;37.468;2023-08-06T09:43:43;99282.81;;;31.38;42.60
49178;BME280;35016;55.674;37.468;2023-08-06T09:46:12;99274.78;;;31.44;42.73
49178;BME280;35016;55.674;37.468;2023-08-06T09:48:40;99275.16;;;31.57;42.76
49178;BME280;35016;55.674;37.468;2023-08-06T09:51:08;99268.31;;;31.65;42.09
49178;BME280;35016;55.674;37.468;2023-08-06T09:53:37;99271.50;;;31.74;41.71
49178;BME280;35016;55.674;37.468;2023-08-06T09:56:04;99267.84;;;31.84;41.79
49178;BME280;35016;55.674;37.468;2023-08-06T09:58:32;99277.44;;;31.90;41.75
49178;BME280;35016;55.674;37.468;2023-08-06T10:01:01;99278.56;;;32.00;41.43
49178;BME280;35016;55.674;37.468;2023-08-06T10:03:30;99258.16;;;31.99;41.47
49178;BME280;35016;55.674;37.468;2023-08-06T10:05:58;99257.69;;;32.08;41.67
49178;BME280;35016;55.674;37.468;2023-08-06T10:08:28;99253.66;;;32.13;41.18
49178;BME280;35016;55.674;37.468;2023-08-06T10:10:58;99254.41;;;32.20;41.56
49178;BME280;35016;55.674;37.468;2023-08-06T10:13:25;99251.56;;;32.31;41.09
49178;BME280;35016;55.674;37.468;2023-08-06T10:15:53;99242.28;;;32.41;41.29
49178;BME280;35016;55.674;37.468;2023-08-06T10:18:20;99246.22;;;32.47;40.97
49178;BME280;35016;55.674;37.468;2023-08-06T10:20:49;99232.56;;;32.49;40.88
49178;BME280;35016;55.674;37.468;2023-08-06T10:23:16;99242.97;;;32.52;40.74
49178;BME280;35016;55.674;37.468;2023-08-06T10:25:53;99242.19;;;32.52;40.71
49178;BME280;35016;55.674;37.468;2023-08-06T10:28:22;99234.13;;;32.54;40.59
49178;BME280;35016;55.674;37.468;2023-08-06T10:31:03;99237.25;;;32.63;40.64
49178;BME280;35016;55.674;37.468;2023-08-06T10:33:44;99235.63;;;32.69;40.01
49178;BME280;35016;55.674;37.468;2023-08-06T10:36:11;99232.81;;;32.69;39.80
49178;BME280;35016;55.674;37.468;2023-08-06T10:38:46;99228.38;;;32.72;39.12
49178;BME280;35016;55.674;37.468;2023-08-06T10:43:49;99221.88;;;32.78;39.66
49178;BME280;35016;55.674;37.468;2023-08-06T10:46:26;99230.66;;;32.87;39.50
49178;BME280;35016;55.674;37.468;2023-08-06T10:48:54;99212.50;;;32.95;39.58
49178;BME280;35016;55.674;37.468;2023-08-06T10:51:21;99224.81;;;33.09;39.37
49178;BME280;35016;55.674;37.468;2023-08-06T10:53:49;99235.13;;;33.19;39.25
49178;BME280;35016;55.674;37.468;2023-08-06T10:56:21;99221.81;;;33.26;38.96
49178;BME280;35016;55.674;37.468;2023-08-06T10:58:50;99222.13;;;33.36;39.14
49178;BME280;35016;55.674;37.468;2023-08-06T11:01:18;99222.78;;;33.47;38.35
49178;BME280;35016;55.674;37.468;2023-08-06T11:03:46;99221.50;;;33.55;38.36
49178;BME280;35016;55.674;37.468;2023-08-06T11:06:21;99223.84;;;33.60;38.03
49178;BME280;35016;55.674;37.468;2023-08-06T11:08:53;99231.44;;;33.63;37.88
49178;BME280;35016;55.674;37.468;2023-08-06T11:11:21;99223.84;;;33.60;38.06
49178;BME280;35016;55.674;37.468;2023-08-06T11:13:50;99226.28;;;33.58;37.96
49178;BME280;35016;55.674;37.468;2023-08-06T11:16:19;99220.31;;;33.52;38.27
49178;BME280;35016;55.674;37.468;2023-08-06T11:18:47;99221.50;;;33.55;38.31
49178;BME280;35016;55.674;37.468;2023-08-06T11:21:14;99223.00;;;33.63;38.13
49178;BME280;35016;55.674;37.468;2023-08-06T11:23:41;99216.06;;;33.71;37.86
49178;BME280;35016;55.674;37.468;2023-08-06T11:26:08;99212.75;;;33.76;37.87
49178;BME280;35016;55.674;37.468;2023-08-06T11:28:35;99206.25;;;33.86;37.76
49178;BME280;35016;55.674;37.468;2023-08-06T11:31:02;99208.94;;;33.94;37.73
49178;BME280;35016;55.674;37.468;2023-08-06T11:33:30;99210.97;;;33.93;37.44
49178;BME280;35016;55.674;37.468;2023-08-06T11:35:59;99216.59;;;33.93;37.33
49178;BME280;35016;55.674;37.468;2023-08-06T11:38:29;99215.00;;;33.92;37.40
49178;BME280;35016;55.674;37.468;2023-08-06T11:40:56;99205.31;;;33.93;37.59
49178;BME280;35016;55.674;37.468;2023-08-06T11:43:24;99205.28;;;33.97;37.70
49178;BME280;35016;55.674;37.468;2023-08-06T11:45:51;99208.34;;;34.06;37.57
49178;BME280;35016;55.674;37.468;2023-08-06T11:48:21;99204.16;;;34.17;37.05
49178;BME280;35016;55.674;37.468;2023-08-06T11:50:48;99207.50;;;34.09;37.06
49178;BME280;35016;55.674;37.468;2023-08-06T11:53:15;99203.69;;;33.96;37.35
49178;BME280;35016;55.674;37.468;2023-08-06T11:56:02;99195.00;;;34.10;37.26
49178;BME280;35016;55.674;37.468;2023-08-06T11:58:29;99196.69;;;34.58;36.90
49178;BME280;35016;55.674;37.468;2023-08-06T12:00:56;99197.03;;;35.06;36.12
49178;BME280;35016;55.674;37.468;2023-08-06T12:03:24;99191.97;;;35.57;35.17
49178;BME280;35016;55.674;37.468;2023-08-06T12:05:54;99184.44;;;36.23;34.52
49178;BME280;35016;55.674;37.468;2023-08-06T12:08:26;99183.06;;;36.92;33.29
49178;BME280;35016;55.674;37.468;2023-08-06T12:10:53;99185.56;;;37.48;33.49
49178;BME280;35016;55.674;37.468;2023-08-06T12:13:20;99183.94;;;37.89;32.56
49178;BME280;35016;55.674;37.468;2023-08-06T12:15:47;99190.59;;;38.46;32.01
49178;BME280;35016;55.674;37.468;2023-08-06T12:18:14;99182.72;;;39.10;31.69
49178;BME280;35016;55.674;37.468;2023-08-06T12:20:41;99180.03;;;39.81;30.50
49178;BME280;35016;55.674;37.468;2023-08-06T12:23:08;99183.00;;;40.58;29.64
49178;BME280;35016;55.674;37.468;2023-08-06T12:25:36;99171.47;;;41.35;28.31
49178;BME280;35016;55.674;37.468;2023-08-06T12:28:04;99179.53;;;42.06;27.83
49178;BME280;35016;55.674;37.468;2023-08-06T12:30:32;99182.50;;;42.68;26.73
49178;BME280;35016;55.674;37.468;2023-08-06T12:33:02;99180.00;;;43.24;25.91
49178;BME280;35016;55.674;37.468;2023-08-06T12:35:29;99181.75;;;43.75;25.74
49178;BME280;35016;55.674;37.468;2023-08-06T12:37:56;99176.03;;;44.25;25.00
49178;BME280;35016;55.674;37.468;2023-08-06T12:40:25;99180.22;;;44.64;24.19
49178;BME280;35016;55.674;37.468;2023-08-06T12:43:04;99168.31;;;44.31;24.14
49178;BME280;35016;55.674;37.468;2023-08-06T12:45:31;99187.84;;;43.38;24.66
49178;BME280;35016;55.674;37.468;2023-08-06T12:47:58;99187.09;;;42.51;25.10
49178;BME280;35016;55.674;37.468;2023-08-06T12:50:25;99178.66;;;42.57;25.45
49178;BME280;35016;55.674;37.468;2023-08-06T12:52:52;99182.47;;;43.16;24.64
49178;BME280;35016;55.674;37.468;2023-08-06T12:55:20;99174.03;;;43.81;23.97
49178;BME280;35016;55.674;37.468;2023-08-06T12:57:47;99174.25;;;44.27;23.57
49178;BME280;35016;55.674;37.468;2023-08-06T13:00:25;99179.66;;;44.60;23.24
49178;BME280;35016;55.674;37.468;2023-08-06T13:02:53;99160.88;;;44.79;22.79
49178;BME280;35016;55.674;37.468;2023-08-06T13:05:20;99164.16;;;44.87;22.55
49178;BME280;35016;55.674;37.468;2023-08-06T13:07:47;99159.28;;;45.19;22.26